sensor_id;sensor_type;location;lat;lon;timestamp;P1;durP1;ratioP1;P2;durP2;ratioP2
22579;SDS011;11456;47.030;15.396;2024-03-23T00:54:40;14.38;;;6.47;;
22579;SDS011;11456;47.030;15.396;2024-03-23T00:57:06;13.60;;;6.68;;
22579;SDS011;11456;47.030;15.396;2024-03-23T00:59:31;13.00;;;6.63;;
22579;SDS011;11456;47.030;15.396;2024-03-23T01:01:57;12.32;;;6.63;;
22579;SDS011;11456;47.030;15.396;2024-03-23T01:04:23;19.98;;;7.25;;
22579;SDS011;11456;47.030;15.396;2024-03-23T01:06:48;16.02;;;7.22;;
22579;SDS011;11456;47.030;15.396;2024-03-23T01:09:14;14.93;;;6.78;;
22579;SDS011;11456;47.030;15.396;2024-03-23T01:11:40;9.48;;;6.18;;
22579;SDS011;11456;47.030;15.396;2024-03-23T01:14:06;10.13;;;5.53;;
22579;SDS011;11456;47.030;15.396;2024-03-23T01:16:32;9.88;;;5.53;;
22579;SDS011;11456;47.030;15.396;2024-03-23T01:18:57;10.00;;;5.28;;
22579;SDS011;11456;47.030;15.396;2024-03-23T01:21:23;8.85;;;5.63;;
22579;SDS011;11456;47.030;15.396;2024-03-23T01:23:49;11.00;;;5.60;;
22579;SDS011;11456;47.030;15.396;2024-03-23T01:26:15;10.00;;;5.50;;
22579;SDS011;11456;47.030;15.396;2024-03-23T01:28:40;13.57;;;5.85;;
22579;SDS011;11456;47.030;15.396;2024-03-23T01:31:06;10.07;;;5.40;;
22579;SDS011;11456;47.030;15.396;2024-03-23T01:33:32;14.32;;;6.05;;
22579;SDS011;11456;47.030;15.396;2024-03-23T01:35:57;9.55;;;5.72;;
22579;SDS011;11456;47.030;15.396;2024-03-23T01:38:23;10.93;;;5.93;;
22579;SDS011;11456;47.030;15.396;2024-03-23T01:40:49;10.23;;;5.75;;
22579;SDS011;11456;47.030;15.396;2024-03-23T01:43:15;10.50;;;6.20;;
22579;SDS011;11456;47.030;15.396;2024-03-23T01:45:40;12.95;;;6.28;;
22579;SDS011;11456;47.030;15.396;2024-03-23T01:48:07;11.50;;;6.78;;
22579;SDS011;11456;47.030;15.396;2024-03-23T01:50:32;11.95;;;5.70;;
22579;SDS011;11456;47.030;15.396;2024-03-23T01:53:02;12.88;;;5.78;;
22579;SDS011;11456;47.030;15.396;2024-03-23T01:55:28;11.23;;;5.53;;
22579;SDS011;11456;47.030;15.396;2024-03-23T01:57:56;9.65;;;5.70;;
22579;SDS011;11456;47.030;15.396;2024-03-23T02:00:23;8.60;;;5.60;;
22579;SDS011;11456;47.030;15.396;2024-03-23T02:02:49;7.85;;;5.50;;
22579;SDS011;11456;47.030;15.396;2024-03-23T02:05:14;9.20;;;5.28;;
22579;SDS011;11456;47.030;15.396;2024-03-23T02:07:41;8.93;;;5.80;;
22579;SDS011;11456;47.030;15.396;2024-03-23T02:10:09;8.55;;;5.60;;
22579;SDS011;11456;47.030;15.396;2024-03-23T02:12:36;8.70;;;5.60;;
22579;SDS011;11456;47.030;15.396;2024-03-23T02:15:02;10.20;;;5.35;;
22579;SDS011;11456;47.030;15.396;2024-03-23T02:17:29;16.88;;;6.07;;
22579;SDS011;11456;47.030;15.396;2024-03-23T02:19:56;11.20;;;5.20;;
22579;SDS011;11456;47.030;15.396;2024-03-23T02:22:21;11.68;;;5.30;;
22579;SDS011;11456;47.030;15.396;2024-03-23T02:24:47;10.13;;;5.70;;
22579;SDS011;11456;47.030;15.396;2024-03-23T02:27:13;11.25;;;5.88;;
22579;SDS011;11456;47.030;15.396;2024-03-23T02:29:39;11.50;;;5.57;;
22579;SDS011;11456;47.030;15.396;2024-03-23T02:32:05;17.08;;;5.53;;
22579;SDS011;11456;47.030;15.396;2024-03-23T02:34:31;8.50;;;5.47;;
22579;SDS011;11456;47.030;15.396;2024-03-23T02:36:56;9.93;;;5.50;;
22579;SDS011;11456;47.030;15.396;2024-03-23T02:39:22;7.75;;;5.40;;
22579;SDS011;11456;47.030;15.396;2024-03-23T02:41:48;27.52;;;12.27;;
22579;SDS011;11456;47.030;15.396;2024-03-23T02:44:14;21.13;;;9.35;;
22579;SDS011;11456;47.030;15.396;2024-03-23T02:46:39;33.63;;;13.77;;
22579;SDS011;11456;47.030;15.396;2024-03-23T02:49:05;69.80;;;28.83;;
22579;SDS011;11456;47.030;15.396;2024-03-23T02:51:31;75.70;;;30.85;;
22579;SDS011;11456;47.030;15.396;2024-03-23T02:53:56;58.53;;;25.67;;
22579;SDS011;11456;47.030;15.396;2024-03-23T02:56:22;61.10;;;25.42;;
22579;SDS011;11456;47.030;15.396;2024-03-23T02:58:48;55.45;;;23.45;;
22579;SDS011;11456;47.030;15.396;2024-03-23T03:01:14;42.17;;;18.42;;
22579;SDS011;11456;47.030;15.396;2024-03-23T03:03:40;33.70;;;15.13;;
22579;SDS011;11456;47.030;15.396;2024-03-23T03:06:05;33.13;;;13.75;;
22579;SDS011;11456;47.030;15.396;2024-03-23T03:08:31;29.30;;;13.15;;
22579;SDS011;11456;47.030;15.396;2024-03-23T03:10:57;25.45;;;12.75;;
22579;SDS011;11456;47.030;15.396;2024-03-23T03:13:22;28.40;;;11.73;;
22579;SDS011;11456;47.030;15.396;2024-03-23T03:15:48;21.25;;;9.13;;
22579;SDS011;11456;47.030;15.396;2024-03-23T03:18:14;30.38;;;10.15;;
22579;SDS011;11456;47.030;15.396;2024-03-23T03:20:40;20.88;;;10.07;;
22579;SDS011;11456;47.030;15.396;2024-03-23T03:23:06;22.73;;;8.73;;
22579;SDS011;11456;47.030;15.396;2024-03-23T03:25:32;16.20;;;7.28;;
22579;SDS011;11456;47.030;15.396;2024-03-23T03:27:58;11.02;;;6.05;;
22579;SDS011;11456;47.030;15.396;2024-03-23T03:30:25;10.98;;;6.32;;
22579;SDS011;11456;47.030;15.396;2024-03-23T03:32:53;10.98;;;6.10;;
22579;SDS011;11456;47.030;15.396;2024-03-23T03:35:18;11.02;;;6.25;;
22579;SDS011;11456;47.030;15.396;2024-03-23T03:37:44;12.73;;;6.15;;
22579;SDS011;11456;47.030;15.396;2024-03-23T03:40:10;10.55;;;5.78;;
22579;SDS011;11456;47.030;15.396;2024-03-23T03:42:37;10.60;;;5.75;;
22579;SDS011;11456;47.030;15.396;2024-03-23T03:45:02;13.70;;;5.90;;
22579;SDS011;11456;47.030;15.396;2024-03-23T03:47:29;12.18;;;5.30;;
22579;SDS011;11456;47.030;15.396;2024-03-23T03:49:55;9.70;;;5.30;;
22579;SDS011;11456;47.030;15.396;2024-03-23T03:52:21;9.00;;;5.43;;
22579;SDS011;11456;47.030;15.396;2024-03-23T03:54:47;11.85;;;5.82;;
22579;SDS011;11456;47.030;15.396;2024-03-23T03:57:12;10.95;;;5.63;;
22579;SDS011;11456;47.030;15.396;2024-03-23T03:59:38;10.73;;;6.28;;
22579;SDS011;11456;47.030;15.396;2024-03-23T04:02:04;8.95;;;5.43;;
22579;SDS011;11456;47.030;15.396;2024-03-23T04:04:30;10.07;;;6.22;;
22579;SDS011;11456;47.030;15.396;2024-03-23T04:06:59;10.68;;;6.80;;
22579;SDS011;11456;47.030;15.396;2024-03-23T04:09:26;20.30;;;11.10;;
22579;SDS011;11456;47.030;15.396;2024-03-23T04:11:51;17.33;;;10.18;;
22579;SDS011;11456;47.030;15.396;2024-03-23T04:14:17;15.73;;;8.48;;
22579;SDS011;11456;47.030;15.396;2024-03-23T04:16:43;13.20;;;8.02;;
22579;SDS011;11456;47.030;15.396;2024-03-23T04:19:08;31.15;;;10.60;;
22579;SDS011;11456;47.030;15.396;2024-03-23T04:21:34;20.02;;;12.55;;
22579;SDS011;11456;47.030;15.396;2024-03-23T04:24:01;17.23;;;9.50;;
22579;SDS011;11456;47.030;15.396;2024-03-23T04:26:26;17.48;;;9.93;;
22579;SDS011;11456;47.030;15.396;2024-03-23T04:28:53;21.00;;;11.05;;
22579;SDS011;11456;47.030;15.396;2024-03-23T04:31:19;14.15;;;8.77;;
22579;SDS011;11456;47.030;15.396;2024-03-23T04:33:44;17.52;;;8.57;;
22579;SDS011;11456;47.030;15.396;2024-03-23T04:36:10;15.63;;;8.38;;
22579;SDS011;11456;47.030;15.396;2024-03-23T04:38:36;11.77;;;7.03;;
22579;SDS011;11456;47.030;15.396;2024-03-23T04:41:01;11.25;;;6.85;;
22579;SDS011;11456;47.030;15.396;2024-03-23T04:43:27;9.68;;;6.07;;
22579;SDS011;11456;47.030;15.396;2024-03-23T04:45:53;12.18;;;6.35;;
22579;SDS011;11456;47.030;15.396;2024-03-23T04:48:20;10.88;;;5.63;;
22579;SDS011;11456;47.030;15.396;2024-03-23T04:50:47;8.98;;;5.10;;
22579;SDS011;11456;47.030;15.396;2024-03-23T04:53:20;8.27;;;4.78;;
22579;SDS011;11456;47.030;15.396;2024-03-23T04:55:45;7.53;;;4.50;;
22579;SDS011;11456;47.030;15.396;2024-03-23T04:58:11;7.57;;;5.75;;
22579;SDS011;11456;47.030;15.396;2024-03-23T05:00:37;11.25;;;6.15;;
22579;SDS011;11456;47.030;15.396;2024-03-23T05:03:02;9.77;;;5.38;;
22579;SDS011;11456;47.030;15.396;2024-03-23T05:05:29;10.35;;;5.97;;
22579;SDS011;11456;47.030;15.396;2024-03-23T05:07:55;11.50;;;6.00;;
22579;SDS011;11456;47.030;15.396;2024-03-23T05:10:20;9.98;;;5.85;;
22579;SDS011;11456;47.030;15.396;2024-03-23T05:12:46;9.57;;;5.82;;
22579;SDS011;11456;47.030;15.396;2024-03-23T05:15:12;10.10;;;5.80;;
22579;SDS011;11456;47.030;15.396;2024-03-23T05:17:38;8.85;;;6.13;;
22579;SDS011;11456;47.030;15.396;2024-03-23T05:20:04;11.85;;;6.10;;
22579;SDS011;11456;47.030;15.396;2024-03-23T05:22:38;12.38;;;6.03;;
22579;SDS011;11456;47.030;15.396;2024-03-23T05:25:04;13.07;;;5.82;;
22579;SDS011;11456;47.030;15.396;2024-03-23T05:27:33;11.85;;;6.20;;
22579;SDS011;11456;47.030;15.396;2024-03-23T05:29:59;12.30;;;6.70;;
22579;SDS011;11456;47.030;15.396;2024-03-23T05:32:25;13.90;;;6.88;;
22579;SDS011;11456;47.030;15.396;2024-03-23T05:34:50;13.48;;;5.90;;
22579;SDS011;11456;47.030;15.396;2024-03-23T05:37:21;11.18;;;6.63;;
22579;SDS011;11456;47.030;15.396;2024-03-23T05:39:47;15.88;;;7.25;;
22579;SDS011;11456;47.030;15.396;2024-03-23T05:42:15;11.35;;;7.15;;
22579;SDS011;11456;47.030;15.396;2024-03-23T05:44:45;14.60;;;6.68;;
22579;SDS011;11456;47.030;15.396;2024-03-23T05:47:11;16.15;;;6.63;;
22579;SDS011;11456;47.030;15.396;2024-03-23T05:49:42;11.10;;;6.20;;
22579;SDS011;11456;47.030;15.396;2024-03-23T05:52:08;16.45;;;6.63;;
22579;SDS011;11456;47.030;15.396;2024-03-23T05:54:35;17.13;;;7.32;;
22579;SDS011;11456;47.030;15.396;2024-03-23T05:57:01;15.30;;;7.97;;
22579;SDS011;11456;47.030;15.396;2024-03-23T05:59:27;15.68;;;7.55;;
22579;SDS011;11456;47.030;15.396;2024-03-23T06:01:53;13.90;;;7.55;;
22579;SDS011;11456;47.030;15.396;2024-03-23T06:04:19;25.40;;;9.38;;
22579;SDS011;11456;47.030;15.396;2024-03-23T06:06:45;19.02;;;9.07;;
22579;SDS011;11456;47.030;15.396;2024-03-23T06:09:11;14.05;;;7.65;;
22579;SDS011;11456;47.030;15.396;2024-03-23T06:11:36;16.55;;;7.50;;
22579;SDS011;11456;47.030;15.396;2024-03-23T06:14:02;17.13;;;7.60;;
22579;SDS011;11456;47.030;15.396;2024-03-23T06:16:28;19.25;;;7.70;;
22579;SDS011;11456;47.030;15.396;2024-03-23T06:18:54;21.30;;;7.70;;
22579;SDS011;11456;47.030;15.396;2024-03-23T06:21:20;13.88;;;7.68;;
22579;SDS011;11456;47.030;15.396;2024-03-23T06:23:46;17.70;;;7.50;;
22579;SDS011;11456;47.030;15.396;2024-03-23T06:26:19;12.52;;;6.50;;
22579;SDS011;11456;47.030;15.396;2024-03-23T06:28:49;13.57;;;7.57;;
22579;SDS011;11456;47.030;15.396;2024-03-23T06:31:15;19.67;;;8.30;;
22579;SDS011;11456;47.030;15.396;2024-03-23T06:33:40;16.27;;;7.38;;
22579;SDS011;11456;47.030;15.396;2024-03-23T06:36:09;27.30;;;8.30;;
22579;SDS011;11456;47.030;15.396;2024-03-23T06:38:36;16.98;;;8.70;;
22579;SDS011;11456;47.030;15.396;2024-03-23T06:41:03;17.13;;;8.52;;
22579;SDS011;11456;47.030;15.396;2024-03-23T06:43:29;15.50;;;8.50;;
22579;SDS011;11456;47.030;15.396;2024-03-23T06:45:55;18.45;;;8.63;;
22579;SDS011;11456;47.030;15.396;2024-03-23T06:48:22;15.85;;;7.93;;
22579;SDS011;11456;47.030;15.396;2024-03-23T06:50:47;18.42;;;8.10;;
22579;SDS011;11456;47.030;15.396;2024-03-23T06:53:15;20.00;;;8.50;;
22579;SDS011;11456;47.030;15.396;2024-03-23T06:55:41;16.33;;;7.78;;
22579;SDS011;11456;47.030;15.396;2024-03-23T06:58:07;15.88;;;7.55;;
22579;SDS011;11456;47.030;15.396;2024-03-23T07:00:33;16.85;;;8.20;;
22579;SDS011;11456;47.030;15.396;2024-03-23T07:02:59;18.52;;;8.73;;
22579;SDS011;11456;47.030;15.396;2024-03-23T07:05:25;16.20;;;8.25;;
22579;SDS011;11456;47.030;15.396;2024-03-23T07:07:51;14.82;;;7.25;;
22579;SDS011;11456;47.030;15.396;2024-03-23T07:10:17;18.23;;;8.20;;
22579;SDS011;11456;47.030;15.396;2024-03-23T07:12:43;18.40;;;8.02;;
22579;SDS011;11456;47.030;15.396;2024-03-23T07:15:08;17.20;;;7.07;;
22579;SDS011;11456;47.030;15.396;2024-03-23T07:17:34;12.38;;;7.65;;
22579;SDS011;11456;47.030;15.396;2024-03-23T07:20:01;19.05;;;7.70;;
22579;SDS011;11456;47.030;15.396;2024-03-23T07:22:32;17.27;;;7.75;;
22579;SDS011;11456;47.030;15.396;2024-03-23T07:25:01;15.30;;;7.88;;
22579;SDS011;11456;47.030;15.396;2024-03-23T07:27:28;15.88;;;7.30;;
22579;SDS011;11456;47.030;15.396;2024-03-23T07:29:53;21.10;;;7.60;;
22579;SDS011;11456;47.030;15.396;2024-03-23T07:32:20;16.02;;;7.13;;
22579;SDS011;11456;47.030;15.396;2024-03-23T07:34:46;12.75;;;7.20;;
22579;SDS011;11456;47.030;15.396;2024-03-23T07:37:12;16.58;;;7.28;;
22579;SDS011;11456;47.030;15.396;2024-03-23T07:39:39;16.10;;;8.10;;
22579;SDS011;11456;47.030;15.396;2024-03-23T07:42:05;19.45;;;8.15;;
22579;SDS011;11456;47.030;15.396;2024-03-23T07:44:31;19.17;;;8.65;;
22579;SDS011;11456;47.030;15.396;2024-03-23T07:46:56;21.05;;;8.48;;
22579;SDS011;11456;47.030;15.396;2024-03-23T07:49:24;19.90;;;9.07;;
22579;SDS011;11456;47.030;15.396;2024-03-23T07:51:49;15.50;;;8.20;;
22579;SDS011;11456;47.030;15.396;2024-03-23T07:54:15;20.13;;;8.45;;
22579;SDS011;11456;47.030;15.396;2024-03-23T07:56:41;42.83;;;9.02;;
22579;SDS011;11456;47.030;15.396;2024-03-23T07:59:06;24.67;;;9.50;;
22579;SDS011;11456;47.030;15.396;2024-03-23T08:01:32;20.67;;;8.48;;
22579;SDS011;11456;47.030;15.396;2024-03-23T08:03:58;18.50;;;8.55;;
22579;SDS011;11456;47.030;15.396;2024-03-23T08:06:23;26.65;;;8.65;;
22579;SDS011;11456;47.030;15.396;2024-03-23T08:08:50;21.08;;;8.20;;
22579;SDS011;11456;47.030;15.396;2024-03-23T08:11:28;26.02;;;10.48;;
22579;SDS011;11456;47.030;15.396;2024-03-23T08:13:56;18.58;;;10.35;;
22579;SDS011;11456;47.030;15.396;2024-03-23T08:16:22;22.35;;;9.73;;
22579;SDS011;11456;47.030;15.396;2024-03-23T08:18:51;25.17;;;10.23;;
22579;SDS011;11456;47.030;15.396;2024-03-23T08:21:16;17.20;;;8.80;;
22579;SDS011;11456;47.030;15.396;2024-03-23T08:23:43;23.70;;;8.77;;
22579;SDS011;11456;47.030;15.396;2024-03-23T08:26:10;19.17;;;8.35;;
22579;SDS011;11456;47.030;15.396;2024-03-23T08:28:38;20.40;;;9.15;;
22579;SDS011;11456;47.030;15.396;2024-03-23T08:31:05;18.77;;;8.02;;
22579;SDS011;11456;47.030;15.396;2024-03-23T08:33:32;22.00;;;9.00;;
22579;SDS011;11456;47.030;15.396;2024-03-23T08:35:59;20.98;;;7.95;;
22579;SDS011;11456;47.030;15.396;2024-03-23T08:38:28;18.90;;;7.72;;
22579;SDS011;11456;47.030;15.396;2024-03-23T08:43:24;13.05;;;7.32;;
22579;SDS011;11456;47.030;15.396;2024-03-23T08:45:50;15.15;;;6.55;;
22579;SDS011;11456;47.030;15.396;2024-03-23T08:48:17;16.38;;;6.72;;
22579;SDS011;11456;47.030;15.396;2024-03-23T08:50:46;13.10;;;6.43;;
22579;SDS011;11456;47.030;15.396;2024-03-23T08:53:12;18.40;;;7.72;;
22579;SDS011;11456;47.030;15.396;2024-03-23T08:55:38;13.05;;;7.03;;
22579;SDS011;11456;47.030;15.396;2024-03-23T08:58:04;21.65;;;7.20;;
22579;SDS011;11456;47.030;15.396;2024-03-23T09:00:33;17.13;;;6.88;;
22579;SDS011;11456;47.030;15.396;2024-03-23T09:02:59;14.98;;;6.97;;
22579;SDS011;11456;47.030;15.396;2024-03-23T09:05:27;14.82;;;5.25;;
22579;SDS011;11456;47.030;15.396;2024-03-23T09:07:54;12.35;;;5.63;;
22579;SDS011;11456;47.030;15.396;2024-03-23T09:10:19;9.88;;;5.07;;
22579;SDS011;11456;47.030;15.396;2024-03-23T09:12:45;13.38;;;4.70;;
22579;SDS011;11456;47.030;15.396;2024-03-23T09:15:11;21.08;;;5.00;;
22579;SDS011;11456;47.030;15.396;2024-03-23T09:17:36;9.90;;;5.10;;
22579;SDS011;11456;47.030;15.396;2024-03-23T09:20:02;10.43;;;4.68;;
22579;SDS011;11456;47.030;15.396;2024-03-23T09:22:29;13.13;;;5.80;;
22579;SDS011;11456;47.030;15.396;2024-03-23T09:24:55;11.00;;;4.40;;
22579;SDS011;11456;47.030;15.396;2024-03-23T09:27:21;11.55;;;5.05;;
22579;SDS011;11456;47.030;15.396;2024-03-23T09:29:46;8.95;;;4.47;;
22579;SDS011;11456;47.030;15.396;2024-03-23T09:32:12;12.70;;;4.55;;
22579;SDS011;11456;47.030;15.396;2024-03-23T09:34:38;12.35;;;4.47;;
22579;SDS011;11456;47.030;15.396;2024-03-23T09:37:04;17.40;;;4.68;;
22579;SDS011;11456;47.030;15.396;2024-03-23T09:39:29;11.48;;;4.85;;
22579;SDS011;11456;47.030;15.396;2024-03-23T09:41:58;11.90;;;5.10;;
22579;SDS011;11456;47.030;15.396;2024-03-23T09:44:24;13.45;;;5.25;;
22579;SDS011;11456;47.030;15.396;2024-03-23T09:46:51;16.20;;;5.70;;
22579;SDS011;11456;47.030;15.396;2024-03-23T09:49:17;10.32;;;5.57;;
22579;SDS011;11456;47.030;15.396;2024-03-23T09:51:43;11.50;;;4.95;;
22579;SDS011;11456;47.030;15.396;2024-03-23T09:54:08;10.43;;;5.57;;
22579;SDS011;11456;47.030;15.396;2024-03-23T09:56:34;10.13;;;5.68;;
22579;SDS011;11456;47.030;15.396;2024-03-23T09:59:03;9.05;;;5.68;;
22579;SDS011;11456;47.030;15.396;2024-03-23T10:01:32;10.98;;;5.47;;
22579;SDS011;11456;47.030;15.396;2024-03-23T10:03:58;10.48;;;5.53;;
22579;SDS011;11456;47.030;15.396;2024-03-23T10:06:24;11.50;;;5.57;;
22579;SDS011;11456;47.030;15.396;2024-03-23T10:08:52;12.55;;;5.65;;
22579;SDS011;11456;47.030;15.396;2024-03-23T10:11:19;12.75;;;5.70;;
22579;SDS011;11456;47.030;15.396;2024-03-23T10:13:46;9.90;;;5.30;;
22579;SDS011;11456;47.030;15.396;2024-03-23T10:16:12;8.27;;;5.00;;
22579;SDS011;11456;47.030;15.396;2024-03-23T10:18:47;13.77;;;5.32;;
22579;SDS011;11456;47.030;15.396;2024-03-23T10:21:14;9.90;;;4.78;;
22579;SDS011;11456;47.030;15.396;2024-03-23T10:23:41;10.35;;;4.60;;
22579;SDS011;11456;47.030;15.396;2024-03-23T10:29:02;8.13;;;4.40;;
22579;SDS011;11456;47.030;15.396;2024-03-23T10:31:33;5.65;;;4.00;;
22579;SDS011;11456;47.030;15.396;2024-03-23T10:34:02;11.32;;;4.00;;
22579;SDS011;11456;47.030;15.396;2024-03-23T10:36:29;9.57;;;4.53;;
22579;SDS011;11456;47.030;15.396;2024-03-23T10:38:55;8.32;;;4.53;;
22579;SDS011;11456;47.030;15.396;2024-03-23T10:41:25;10.05;;;4.22;;
22579;SDS011;11456;47.030;15.396;2024-03-23T10:43:52;6.47;;;4.03;;
22579;SDS011;11456;47.030;15.396;2024-03-23T10:46:21;6.13;;;3.80;;
22579;SDS011;11456;47.030;15.396;2024-03-23T10:48:47;5.95;;;3.38;;
22579;SDS011;11456;47.030;15.396;2024-03-23T10:51:14;6.57;;;3.90;;
22579;SDS011;11456;47.030;15.396;2024-03-23T10:53:40;14.35;;;4.10;;
22579;SDS011;11456;47.030;15.396;2024-03-23T10:56:06;7.38;;;3.13;;
22579;SDS011;11456;47.030;15.396;2024-03-23T10:58:43;8.48;;;2.90;;
22579;SDS011;11456;47.030;15.396;2024-03-23T11:01:15;6.57;;;3.25;;
22579;SDS011;11456;47.030;15.396;2024-03-23T11:03:45;4.95;;;2.78;;
22579;SDS011;11456;47.030;15.396;2024-03-23T11:06:33;3.78;;;2.63;;
22579;SDS011;11456;47.030;15.396;2024-03-23T11:09:03;4.50;;;2.50;;
22579;SDS011;11456;47.030;15.396;2024-03-23T11:11:49;9.70;;;3.92;;
22579;SDS011;11456;47.030;15.396;2024-03-23T11:14:21;6.20;;;3.35;;
22579;SDS011;11456;47.030;15.396;2024-03-23T11:16:48;9.43;;;3.67;;
22579;SDS011;11456;47.030;15.396;2024-03-23T11:19:34;5.95;;;3.50;;
22579;SDS011;11456;47.030;15.396;2024-03-23T11:22:04;8.30;;;4.50;;
22579;SDS011;11456;47.030;15.396;2024-03-23T11:24:30;8.00;;;4.53;;
22579;SDS011;11456;47.030;15.396;2024-03-23T11:26:57;6.40;;;3.97;;
22579;SDS011;11456;47.030;15.396;2024-03-23T11:29:27;7.18;;;4.82;;
22579;SDS011;11456;47.030;15.396;2024-03-23T11:31:53;9.60;;;4.93;;
22579;SDS011;11456;47.030;15.396;2024-03-23T11:34:19;6.25;;;4.50;;
22579;SDS011;11456;47.030;15.396;2024-03-23T11:36:45;7.75;;;4.30;;
22579;SDS011;11456;47.030;15.396;2024-03-23T11:41:45;6.90;;;4.30;;
22579;SDS011;11456;47.030;15.396;2024-03-23T11:44:15;8.38;;;4.07;;
22579;SDS011;11456;47.030;15.396;2024-03-23T11:46:41;5.07;;;3.90;;
22579;SDS011;11456;47.030;15.396;2024-03-23T11:49:19;8.30;;;4.20;;
22579;SDS011;11456;47.030;15.396;2024-03-23T11:51:52;6.25;;;4.63;;
22579;SDS011;11456;47.030;15.396;2024-03-23T11:54:23;5.60;;;4.00;;
22579;SDS011;11456;47.030;15.396;2024-03-23T11:57:02;6.75;;;3.67;;
22579;SDS011;11456;47.030;15.396;2024-03-23T11:59:33;5.43;;;3.85;;
22579;SDS011;11456;47.030;15.396;2024-03-23T12:02:00;6.47;;;4.18;;
22579;SDS011;11456;47.030;15.396;2024-03-23T12:04:29;7.82;;;4.00;;
22579;SDS011;11456;47.030;15.396;2024-03-23T12:09:46;8.85;;;4.30;;
22579;SDS011;11456;47.030;15.396;2024-03-23T12:12:27;7.82;;;4.22;;
22579;SDS011;11456;47.030;15.396;2024-03-23T12:15:03;7.10;;;4.15;;
22579;SDS011;11456;47.030;15.396;2024-03-23T12:17:33;7.13;;;4.00;;
22579;SDS011;11456;47.030;15.396;2024-03-23T12:20:00;6.35;;;3.92;;
22579;SDS011;11456;47.030;15.396;2024-03-23T12:22:26;5.78;;;3.90;;
22579;SDS011;11456;47.030;15.396;2024-03-23T12:24:52;8.38;;;4.15;;
22579;SDS011;11456;47.030;15.396;2024-03-23T12:27:18;7.28;;;3.65;;
22579;SDS011;11456;47.030;15.396;2024-03-23T12:29:44;6.00;;;3.80;;
22579;SDS011;11456;47.030;15.396;2024-03-23T12:32:12;5.28;;;3.33;;
22579;SDS011;11456;47.030;15.396;2024-03-23T12:34:39;5.75;;;3.30;;
22579;SDS011;11456;47.030;15.396;2024-03-23T12:37:05;4.63;;;3.58;;
22579;SDS011;11456;47.030;15.396;2024-03-23T12:39:33;5.82;;;3.38;;
22579;SDS011;11456;47.030;15.396;2024-03-23T12:42:00;5.30;;;3.25;;
22579;SDS011;11456;47.030;15.396;2024-03-23T12:44:28;6.40;;;3.40;;
22579;SDS011;11456;47.030;15.396;2024-03-23T12:46:54;4.93;;;3.17;;
22579;SDS011;11456;47.030;15.396;2024-03-23T12:49:19;4.80;;;3.33;;
22579;SDS011;11456;47.030;15.396;2024-03-23T12:51:55;9.40;;;3.50;;
22579;SDS011;11456;47.030;15.396;2024-03-23T12:54:22;5.00;;;3.03;;
22579;SDS011;11456;47.030;15.396;2024-03-23T12:56:48;4.22;;;2.63;;
22579;SDS011;11456;47.030;15.396;2024-03-23T12:59:14;6.95;;;2.92;;
22579;SDS011;11456;47.030;15.396;2024-03-23T13:01:40;4.28;;;2.83;;
22579;SDS011;11456;47.030;15.396;2024-03-23T13:04:06;4.32;;;2.65;;
22579;SDS011;11456;47.030;15.396;2024-03-23T13:06:31;5.25;;;2.45;;
22579;SDS011;11456;47.030;15.396;2024-03-23T13:09:00;4.57;;;2.40;;
22579;SDS011;11456;47.030;15.396;2024-03-23T13:11:27;3.92;;;2.70;;
22579;SDS011;11456;47.030;15.396;2024-03-23T13:13:53;5.00;;;2.50;;
22579;SDS011;11456;47.030;15.396;2024-03-23T13:16:19;4.05;;;2.92;;
22579;SDS011;11456;47.030;15.396;2024-03-23T13:18:45;4.43;;;2.63;;
22579;SDS011;11456;47.030;15.396;2024-03-23T13:21:11;4.88;;;2.58;;
22579;SDS011;11456;47.030;15.396;2024-03-23T13:23:36;5.25;;;2.33;;
22579;SDS011;11456;47.030;15.396;2024-03-23T13:26:03;4.80;;;2.50;;
22579;SDS011;11456;47.030;15.396;2024-03-23T13:28:29;22.05;;;3.28;;
22579;SDS011;11456;47.030;15.396;2024-03-23T13:30:55;3.92;;;2.63;;
22579;SDS011;11456;47.030;15.396;2024-03-23T13:33:21;5.10;;;3.05;;
22579;SDS011;11456;47.030;15.396;2024-03-23T13:38:23;4.65;;;2.35;;
22579;SDS011;11456;47.030;15.396;2024-03-23T13:40:50;3.72;;;2.63;;
22579;SDS011;11456;47.030;15.396;2024-03-23T13:43:20;4.10;;;2.60;;
22579;SDS011;11456;47.030;15.396;2024-03-23T13:45:53;6.55;;;2.97;;
22579;SDS011;11456;47.030;15.396;2024-03-23T13:48:20;5.50;;;2.83;;
22579;SDS011;11456;47.030;15.396;2024-03-23T13:50:46;4.88;;;2.95;;
22579;SDS011;11456;47.030;15.396;2024-03-23T13:53:15;6.93;;;3.08;;
22579;SDS011;11456;47.030;15.396;2024-03-23T13:55:47;6.15;;;3.88;;
22579;SDS011;11456;47.030;15.396;2024-03-23T13:58:16;6.28;;;3.40;;
22579;SDS011;11456;47.030;15.396;2024-03-23T14:00:42;5.72;;;3.65;;
22579;SDS011;11456;47.030;15.396;2024-03-23T14:03:11;6.07;;;3.55;;
22579;SDS011;11456;47.030;15.396;2024-03-23T14:05:38;5.28;;;3.13;;
22579;SDS011;11456;47.030;15.396;2024-03-23T14:08:07;7.10;;;3.53;;
22579;SDS011;11456;47.030;15.396;2024-03-23T14:10:34;6.05;;;3.75;;
22579;SDS011;11456;47.030;15.396;2024-03-23T14:13:03;7.10;;;3.55;;
22579;SDS011;11456;47.030;15.396;2024-03-23T14:15:29;7.15;;;3.70;;
22579;SDS011;11456;47.030;15.396;2024-03-23T14:17:58;7.85;;;3.80;;
22579;SDS011;11456;47.030;15.396;2024-03-23T14:20:24;5.65;;;3.83;;
22579;SDS011;11456;47.030;15.396;2024-03-23T14:22:50;6.07;;;3.38;;
22579;SDS011;11456;47.030;15.396;2024-03-23T14:25:16;7.55;;;3.60;;
22579;SDS011;11456;47.030;15.396;2024-03-23T14:27:46;5.00;;;3.10;;
22579;SDS011;11456;47.030;15.396;2024-03-23T14:30:12;5.63;;;3.70;;
22579;SDS011;11456;47.030;15.396;2024-03-23T14:32:38;7.03;;;3.30;;
22579;SDS011;11456;47.030;15.396;2024-03-23T14:35:04;5.40;;;3.08;;
22579;SDS011;11456;47.030;15.396;2024-03-23T14:37:30;4.82;;;3.85;;
22579;SDS011;11456;47.030;15.396;2024-03-23T14:39:56;8.32;;;3.85;;
22579;SDS011;11456;47.030;15.396;2024-03-23T14:42:22;6.35;;;3.22;;
22579;SDS011;11456;47.030;15.396;2024-03-23T14:44:51;4.20;;;3.30;;
22579;SDS011;11456;47.030;15.396;2024-03-23T14:47:18;6.40;;;3.25;;
22579;SDS011;11456;47.030;15.396;2024-03-23T14:49:44;5.78;;;3.60;;
22579;SDS011;11456;47.030;15.396;2024-03-23T14:52:16;6.07;;;3.50;;
22579;SDS011;11456;47.030;15.396;2024-03-23T14:54:42;5.90;;;3.65;;
22579;SDS011;11456;47.030;15.396;2024-03-23T14:57:07;4.50;;;3.40;;
22579;SDS011;11456;47.030;15.396;2024-03-23T14:59:36;5.47;;;3.05;;
22579;SDS011;11456;47.030;15.396;2024-03-23T15:02:06;4.38;;;3.45;;
22579;SDS011;11456;47.030;15.396;2024-03-23T15:04:35;5.32;;;3.47;;
22579;SDS011;11456;47.030;15.396;2024-03-23T15:07:01;5.15;;;3.30;;
22579;SDS011;11456;47.030;15.396;2024-03-23T15:09:27;6.15;;;3.40;;
22579;SDS011;11456;47.030;15.396;2024-03-23T15:11:53;4.80;;;3.50;;
22579;SDS011;11456;47.030;15.396;2024-03-23T15:14:21;4.53;;;3.50;;
22579;SDS011;11456;47.030;15.396;2024-03-23T15:16:46;4.78;;;3.60;;
22579;SDS011;11456;47.030;15.396;2024-03-23T15:19:17;4.72;;;3.10;;
22579;SDS011;11456;47.030;15.396;2024-03-23T15:21:43;16.30;;;2.55;;
22579;SDS011;11456;47.030;15.396;2024-03-23T15:24:09;22.63;;;1.63;;
22579;SDS011;11456;47.030;15.396;2024-03-23T15:26:38;14.25;;;1.60;;
22579;SDS011;11456;47.030;15.396;2024-03-23T15:29:04;8.68;;;1.17;;
22579;SDS011;11456;47.030;15.396;2024-03-23T15:31:37;11.50;;;1.13;;